Check out our new BloomSky Weather System.

Active alerts


No alerts


Thunder radar  blitzortung!


Rain radar more information rain snow radar


Visit our other weather sites:

Template documentation
and downloads

And another site



Weather Underground History page Text

Daily Summary for July 10, 2017 Units:  English    Metric   Both
« Previous Day
Next Day »
Daily Weekly Monthly Yearly Custom
  High: Low: Average:
Temperature: 84.4 °F 72.7 °F 77.3 °F
Dew Point: 76.8 °F 72.3 °F 74.4 °F
Humidity: 100 % 71 % 92 %
Wind Speed: 6.0 mph 0.0 mph 1.2 mph
Wind Gust: 12.0 mph - -
Wind:- - SSE
Pressure: 30.06 in 29.94 in -
Precipitation: 1.11 in    
Historical Graphs
 
 
Tabular Data for July 10, 2017
Time Temperature Dew Point Pressure Wind Wind Speed Wind Gust Humidity Rainfall Rate (Hourly)
00:02 73.9 °F 73.4 °F 30.01 in East 1.0 mph 4.0 mph 98 % 0.13 in
00:07 73.9 °F 73.4 °F 30.00 in Calm   4.0 mph 98 % 0.12 in
00:12 73.8 °F 73.2 °F 29.99 in ESE 2.0 mph 4.0 mph 98 % 0.12 in
00:17 73.6 °F 73.0 °F 29.99 in SE 2.0 mph 4.0 mph 98 % 0.11 in
00:22 73.6 °F 73.0 °F 29.98 in East 2.0 mph 4.0 mph 98 % 0.11 in
00:27 73.6 °F 73.0 °F 29.97 in Calm   4.0 mph 98 % 0.10 in
00:32 73.8 °F 73.4 °F 29.97 in SSE 2.0 mph 4.0 mph 99 % 0.08 in
00:37 73.9 °F 73.6 °F 29.97 in SE 1.0 mph 4.0 mph 99 % 0.07 in
00:42 73.9 °F 73.6 °F 29.96 in SE 3.0 mph 3.0 mph 99 % 0.07 in
00:47 73.9 °F 73.6 °F 29.96 in ESE 3.0 mph 5.0 mph 99 % 0.06 in
00:52 73.9 °F 73.6 °F 29.96 in SSE 4.0 mph 5.0 mph 99 % 0.05 in
00:57 73.8 °F 73.2 °F 29.96 in South 2.0 mph 6.0 mph 98 % 0.03 in
01:02 73.8 °F 73.2 °F 29.95 in SSE 1.0 mph 6.0 mph 98 % 0.03 in
01:07 73.6 °F 73.0 °F 29.95 in East 2.0 mph 6.0 mph 98 % 0.03 in
01:12 73.4 °F 72.9 °F 29.95 in ESE 2.0 mph 6.0 mph 98 % 0.02 in
01:17 73.6 °F 73.2 °F 29.94 in Calm   3.0 mph 99 % 0.02 in
01:18 73.6 °F 73.2 °F 29.94 in Calm   3.0 mph 99 % 0.02 in
01:23 73.4 °F 73.0 °F 29.94 in South 1.0 mph 3.0 mph 99 % 0.01 in
01:28 73.2 °F 72.7 °F 29.95 in Calm   4.0 mph 98 % 0.01 in
01:33 73.2 °F 72.9 °F 29.94 in Calm   4.0 mph 99 % 0.01 in
01:38 73.4 °F 73.0 °F 29.94 in SSW 1.0 mph 4.0 mph 99 % 0.01 in
01:43 73.4 °F 73.0 °F 29.95 in South 2.0 mph 4.0 mph 99 % 0.01 in
01:48 73.4 °F 73.0 °F 29.94 in Calm   4.0 mph 99 % 0.01 in
01:53 73.4 °F 73.0 °F 29.95 in SSW 1.0 mph 6.0 mph 99 % 0.01 in
01:58 73.4 °F 73.0 °F 29.95 in SSE 2.0 mph 6.0 mph 99 % 0.01 in
02:03 73.4 °F 73.0 °F 29.95 in South 3.0 mph 6.0 mph 99 % 0.00 in
02:08 73.4 °F 73.0 °F 29.95 in South 2.0 mph 5.0 mph 99 % 0.00 in
02:13 73.4 °F 73.0 °F 29.95 in SSW 2.0 mph 5.0 mph 99 % 0.00 in
02:19 73.4 °F 73.0 °F 29.95 in Calm   5.0 mph 99 % 0.00 in
02:24 73.6 °F 73.2 °F 29.95 in Calm   4.0 mph 99 % 0.00 in
02:29 73.6 °F 73.2 °F 29.96 in Calm   4.0 mph 99 % 0.00 in
02:34 73.6 °F 73.2 °F 29.96 in Calm   3.0 mph 99 % 0.00 in
02:39 73.6 °F 73.2 °F 29.96 in Calm   3.0 mph 99 % 0.00 in
02:43 73.6 °F 73.2 °F 29.96 in Calm   2.0 mph 99 % 0.00 in
02:48 73.6 °F 73.2 °F 29.96 in Calm   1.0 mph 99 % 0.00 in
02:49 73.6 °F 73.2 °F 29.96 in Calm   1.0 mph 99 % 0.00 in
02:54 73.6 °F 73.2 °F 29.96 in Calm   1.0 mph 99 % 0.00 in
02:59 73.6 °F 73.2 °F 29.97 in Calm   1.0 mph 99 % 0.00 in
03:04 73.6 °F 73.2 °F 29.97 in Calm   1.0 mph 99 % 0.00 in
03:09 73.8 °F 73.4 °F 29.97 in Calm   1.0 mph 99 % 0.00 in
03:14 73.6 °F 73.2 °F 29.97 in Calm   1.0 mph 99 % 0.00 in
03:19 73.6 °F 73.2 °F 29.97 in Calm   1.0 mph 99 % 0.00 in
03:24 73.6 °F 73.2 °F 29.97 in Calm   1.0 mph 99 % 0.00 in
03:29 73.6 °F 73.2 °F 29.97 in Calm   1.0 mph 99 % 0.00 in
03:34 73.6 °F 73.2 °F 29.97 in Calm   1.0 mph 99 % 0.00 in
03:39 73.6 °F 73.2 °F 29.97 in Calm   1.0 mph 99 % 0.00 in
03:44 73.6 °F 73.2 °F 29.97 in Calm   1.0 mph 99 % 0.00 in
03:49 73.6 °F 73.2 °F 29.97 in Calm   1.0 mph 99 % 0.00 in
03:54 73.6 °F 73.2 °F 29.97 in Calm   1.0 mph 99 % 0.00 in
04:58 73.8 °F 73.4 °F 29.97 in Calm   2.0 mph 99 % 0.00 in
05:03 73.6 °F 73.2 °F 29.98 in Calm   2.0 mph 99 % 0.00 in
05:08 73.6 °F 73.2 °F 29.98 in Calm   1.0 mph 99 % 0.00 in
05:13 73.8 °F 73.4 °F 29.98 in SE 1.0 mph 1.0 mph 99 % 0.00 in
05:18 73.8 °F 73.4 °F 29.98 in Calm   2.0 mph 99 % 0.00 in
05:23 73.8 °F 73.4 °F 29.99 in Calm   2.0 mph 99 % 0.00 in
05:28 73.8 °F 73.4 °F 29.99 in Calm   2.0 mph 99 % 0.00 in
05:33 73.8 °F 73.4 °F 29.99 in Calm   3.0 mph 99 % 0.00 in
05:38 73.8 °F 73.4 °F 29.99 in North 4.0 mph 4.0 mph 99 % 0.00 in
05:43 73.6 °F 73.2 °F 29.99 in NW 1.0 mph 5.0 mph 99 % 0.00 in
05:48 73.6 °F 73.2 °F 30.00 in Calm   5.0 mph 99 % 0.00 in
05:53 73.6 °F 73.2 °F 30.00 in NNW 1.0 mph 5.0 mph 99 % 0.00 in
07:03 73.2 °F 72.9 °F 30.01 in Calm   3.0 mph 99 % 0.00 in
07:08 73.2 °F 72.9 °F 30.02 in Calm   3.0 mph 99 % 0.03 in
07:13 73.2 °F 72.9 °F 30.01 in ENE 1.0 mph 1.0 mph 99 % 0.20 in
07:18 73.0 °F 72.7 °F 30.00 in NE 2.0 mph 4.0 mph 99 % 0.45 in
07:23 72.9 °F 72.5 °F 30.00 in East 2.0 mph 4.0 mph 99 % 0.54 in
07:28 72.7 °F 72.3 °F 30.01 in NW 1.0 mph 4.0 mph 99 % 0.56 in
07:33 72.7 °F 72.3 °F 30.01 in Calm   4.0 mph 99 % 0.56 in
07:38 72.7 °F 72.3 °F 30.01 in Calm   4.0 mph 99 % 0.56 in
07:43 72.9 °F 72.5 °F 30.02 in East 2.0 mph 4.0 mph 99 % 0.56 in
07:48 72.9 °F 72.5 °F 30.02 in Calm   4.0 mph 99 % 0.56 in
07:53 73.0 °F 72.7 °F 30.02 in Calm   3.0 mph 99 % 0.56 in
07:58 73.0 °F 72.7 °F 30.02 in Calm   3.0 mph 99 % 0.56 in
08:03 73.2 °F 72.9 °F 30.02 in Calm   2.0 mph 99 % 0.56 in
08:08 73.2 °F 72.9 °F 30.02 in Calm   4.0 mph 99 % 0.52 in
08:13 73.4 °F 73.0 °F 30.02 in Calm   4.0 mph 99 % 0.36 in
08:18 73.6 °F 73.2 °F 30.02 in Calm   4.0 mph 99 % 0.10 in
08:23 73.6 °F 73.2 °F 30.02 in NE 2.0 mph 3.0 mph 99 % 0.03 in
08:28 73.8 °F 73.4 °F 30.02 in Calm   3.0 mph 99 % 0.01 in
08:33 73.8 °F 73.4 °F 30.02 in Calm   2.0 mph 99 % 0.02 in
08:38 73.9 °F 73.6 °F 30.02 in Calm   2.0 mph 99 % 0.02 in
08:39 73.9 °F 73.6 °F 30.02 in Calm   2.0 mph 99 % 0.02 in
08:44 73.9 °F 73.9 °F 30.02 in Calm   2.0 mph 100 % 0.02 in
08:49 73.9 °F 73.6 °F 30.02 in Calm   2.0 mph 99 % 0.02 in
08:54 74.1 °F 73.8 °F 30.03 in Calm   3.0 mph 99 % 0.02 in
08:59 74.3 °F 74.3 °F 30.03 in Calm   3.0 mph 100 % 0.02 in
09:04 74.8 °F 74.8 °F 30.03 in Calm   3.0 mph 100 % 0.02 in
09:09 75.0 °F 75.0 °F 30.04 in Calm   2.0 mph 100 % 0.02 in
09:14 75.0 °F 75.0 °F 30.04 in West 2.0 mph 2.0 mph 100 % 0.02 in
09:19 74.8 °F 74.5 °F 30.04 in SW 1.0 mph 3.0 mph 99 % 0.02 in
09:24 74.7 °F 74.3 °F 30.04 in WSW 1.0 mph 4.0 mph 99 % 0.03 in
09:29 74.5 °F 74.1 °F 30.05 in ENE 3.0 mph 4.0 mph 99 % 0.05 in
09:34 74.5 °F 74.1 °F 30.05 in Calm   4.0 mph 99 % 0.18 in
09:39 74.7 °F 74.3 °F 30.05 in NW 4.0 mph 4.0 mph 99 % 0.23 in
09:44 74.1 °F 73.8 °F 30.06 in NW 4.0 mph 5.0 mph 99 % 0.24 in
09:49 73.8 °F 73.4 °F 30.06 in NW 1.0 mph 8.0 mph 99 % 0.24 in
09:54 73.6 °F 73.2 °F 30.06 in NW 3.0 mph 8.0 mph 99 % 0.25 in
10:00 73.2 °F 72.9 °F 30.06 in NNW 4.0 mph 8.0 mph 99 % 0.25 in
10:05 73.2 °F 72.9 °F 30.06 in WNW 3.0 mph 9.0 mph 99 % 0.26 in
10:10 73.2 °F 72.9 °F 30.06 in NNW 5.0 mph 9.0 mph 99 % 0.34 in
10:15 73.2 °F 72.9 °F 30.06 in NNE 4.0 mph 12.0 mph 99 % 0.42 in
10:20 73.4 °F 73.0 °F 30.06 in NNW 2.0 mph 12.0 mph 99 % 0.45 in
10:25 73.6 °F 73.2 °F 30.05 in Calm   11.0 mph 99 % 0.44 in
10:30 73.4 °F 73.0 °F 30.05 in Calm   5.0 mph 99 % 0.30 in
10:35 73.6 °F 73.2 °F 30.05 in Calm   4.0 mph 99 % 0.26 in
10:40 73.6 °F 73.2 °F 30.06 in Calm   2.0 mph 99 % 0.25 in
10:45 73.8 °F 73.8 °F 30.06 in Calm   2.0 mph 100 % 0.25 in
10:51 73.9 °F 73.9 °F 30.06 in Calm   1.0 mph 100 % 0.24 in
10:56 73.9 °F 73.9 °F 30.06 in Calm   1.0 mph 100 % 0.24 in
11:01 73.9 °F 73.9 °F 30.06 in Calm   1.0 mph 100 % 0.24 in
11:06 73.9 °F 73.9 °F 30.06 in Calm   1.0 mph 100 % 0.15 in
11:10 73.9 °F 73.9 °F 30.06 in Calm   1.0 mph 100 % 0.07 in
11:15 73.9 °F 73.9 °F 30.06 in Calm   1.0 mph 100 % 0.04 in
11:21 74.1 °F 73.8 °F 30.06 in Calm   2.0 mph 99 % 0.03 in
11:26 74.1 °F 74.1 °F 30.06 in Calm   2.0 mph 100 % 0.02 in
11:31 74.1 °F 74.1 °F 30.06 in NW 1.0 mph 2.0 mph 100 % 0.01 in
11:36 73.9 °F 73.6 °F 30.06 in NW 3.0 mph 3.0 mph 99 % 0.01 in
11:41 73.8 °F 73.4 °F 30.06 in WNW 1.0 mph 3.0 mph 99 % 0.01 in
11:46 73.8 °F 73.4 °F 30.06 in NW 2.0 mph 4.0 mph 99 % 0.01 in
11:51 73.8 °F 73.4 °F 30.06 in Calm   4.0 mph 99 % 0.01 in
11:56 73.8 °F 73.4 °F 30.06 in NW 1.0 mph 4.0 mph 99 % 0.01 in
12:01 73.6 °F 73.2 °F 30.06 in Calm   3.0 mph 99 % 0.00 in
12:06 73.8 °F 73.4 °F 30.06 in Calm   3.0 mph 99 % 0.00 in
12:11 73.8 °F 73.4 °F 30.05 in Calm   3.0 mph 99 % 0.00 in
12:16 73.9 °F 73.6 °F 30.05 in Calm   3.0 mph 99 % 0.00 in
12:21 73.9 °F 73.6 °F 30.05 in Calm   3.0 mph 99 % 0.00 in
12:26 74.5 °F 74.1 °F 30.05 in Calm   3.0 mph 99 % 0.00 in
12:31 74.5 °F 74.5 °F 30.05 in Calm   3.0 mph 100 % 0.00 in
12:36 74.5 °F 74.5 °F 30.05 in Calm   1.0 mph 100 % 0.00 in
12:41 74.5 °F 74.1 °F 30.05 in Calm   1.0 mph 99 % 0.00 in
12:46 74.1 °F 73.8 °F 30.05 in Calm   1.0 mph 99 % 0.00 in
12:51 74.1 °F 73.8 °F 30.05 in Calm   1.0 mph 99 % 0.00 in
12:56 74.7 °F 74.3 °F 30.04 in Calm   1.0 mph 99 % 0.00 in
13:01 74.7 °F 74.3 °F 30.04 in Calm   1.0 mph 99 % 0.00 in
13:06 75.0 °F 74.7 °F 30.04 in Calm   1.0 mph 99 % 0.00 in
13:08 75.0 °F 74.7 °F 30.04 in NNW 2.0 mph 2.0 mph 99 % 0.00 in
13:13 75.0 °F 74.7 °F 30.04 in NW 1.0 mph 2.0 mph 99 % 0.00 in
13:18 75.0 °F 74.7 °F 30.04 in Calm   2.0 mph 99 % 0.00 in
13:23 74.8 °F 74.5 °F 30.04 in Calm   2.0 mph 99 % 0.00 in
13:28 75.2 °F 74.8 °F 30.04 in Calm   2.0 mph 99 % 0.00 in
13:33 75.6 °F 75.2 °F 30.04 in Calm   2.0 mph 99 % 0.00 in
13:38 75.6 °F 75.2 °F 30.04 in Calm   1.0 mph 99 % 0.00 in
13:43 76.1 °F 75.6 °F 30.03 in Calm   1.0 mph 98 % 0.00 in
13:48 76.3 °F 75.7 °F 30.03 in Calm   1.0 mph 98 % 0.00 in
13:53 76.3 °F 75.7 °F 30.03 in Calm   1.0 mph 98 % 0.00 in
13:58 76.6 °F 75.7 °F 30.02 in Calm   2.0 mph 97 % 0.00 in
14:03 77.4 °F 76.5 °F 30.02 in Calm   2.0 mph 97 % 0.00 in
14:08 77.7 °F 76.5 °F 30.02 in Calm   2.0 mph 96 % 0.00 in
14:13 78.3 °F 76.6 °F 30.02 in Calm   1.0 mph 95 % 0.00 in
14:18 79.0 °F 76.8 °F 30.02 in Calm   1.0 mph 93 % 0.00 in
14:23 79.3 °F 76.8 °F 30.02 in Calm   1.0 mph 92 % 0.00 in
14:28 79.9 °F 76.6 °F 30.02 in Calm   1.0 mph 90 % 0.00 in
14:33 80.4 °F 76.5 °F 30.02 in ESE 1.0 mph 2.0 mph 88 % 0.00 in
14:38 80.8 °F 75.9 °F 30.01 in Calm   2.0 mph 85 % 0.00 in
14:43 81.3 °F 75.7 °F 30.01 in Calm   2.0 mph 83 % 0.00 in
14:48 82.0 °F 75.6 °F 30.01 in ESE 1.0 mph 2.0 mph 81 % 0.00 in
14:53 82.6 °F 75.7 °F 30.01 in SE 1.0 mph 2.0 mph 80 % 0.00 in
14:58 82.8 °F 75.9 °F 30.01 in SE 3.0 mph 4.0 mph 80 % 0.00 in
15:03 82.8 °F 75.9 °F 30.01 in East 3.0 mph 6.0 mph 80 % 0.00 in
15:08 82.9 °F 76.5 °F 30.01 in SE 3.0 mph 6.0 mph 81 % 0.00 in
15:13 82.9 °F 76.8 °F 30.01 in ESE 4.0 mph 6.0 mph 82 % 0.00 in
15:18 82.8 °F 75.9 °F 30.01 in SE 1.0 mph 5.0 mph 80 % 0.00 in
15:23 82.6 °F 75.0 °F 30.01 in SE 2.0 mph 5.0 mph 78 % 0.00 in
15:28 82.4 °F 75.2 °F 30.00 in South 4.0 mph 7.0 mph 79 % 0.00 in
15:33 82.4 °F 75.6 °F 30.00 in East 2.0 mph 7.0 mph 80 % 0.00 in
15:38 82.6 °F 76.1 °F 30.00 in SE 3.0 mph 7.0 mph 81 % 0.00 in
15:43 82.6 °F 76.1 °F 30.00 in Calm   6.0 mph 81 % 0.00 in
15:48 82.6 °F 75.7 °F 30.00 in Calm   6.0 mph 80 % 0.00 in
15:53 82.6 °F 75.7 °F 29.99 in East 1.0 mph 5.0 mph 80 % 0.00 in
15:58 82.4 °F 75.6 °F 29.99 in SSE 2.0 mph 5.0 mph 80 % 0.00 in
16:03 82.4 °F 75.9 °F 29.99 in ESE 1.0 mph 6.0 mph 81 % 0.00 in
16:08 82.4 °F 75.6 °F 29.99 in SE 1.0 mph 6.0 mph 80 % 0.00 in
16:13 82.2 °F 75.0 °F 29.99 in SE 6.0 mph 6.0 mph 79 % 0.00 in
16:18 82.0 °F 74.8 °F 29.99 in ENE 3.0 mph 8.0 mph 79 % 0.00 in
16:23 82.0 °F 75.6 °F 29.99 in SE 4.0 mph 8.0 mph 81 % 0.00 in
16:28 81.9 °F 75.4 °F 29.99 in ESE 4.0 mph 8.0 mph 81 % 0.00 in
16:33 81.9 °F 75.7 °F 29.99 in Calm   6.0 mph 82 % 0.00 in
16:38 82.0 °F 76.3 °F 29.99 in SE 1.0 mph 6.0 mph 83 % 0.00 in
16:43 82.0 °F 75.9 °F 29.99 in SSE 2.0 mph 5.0 mph 82 % 0.00 in
16:48 82.0 °F 75.6 °F 29.99 in South 2.0 mph 4.0 mph 81 % 0.00 in
16:53 82.0 °F 75.9 °F 29.99 in SE 1.0 mph 6.0 mph 82 % 0.00 in
16:58 82.0 °F 75.9 °F 29.98 in East 1.0 mph 6.0 mph 82 % 0.00 in
17:03 82.0 °F 75.9 °F 29.98 in Calm   6.0 mph 82 % 0.00 in
17:06 82.0 °F 76.3 °F 29.98 in Calm   5.0 mph 83 % 0.00 in
17:11 82.0 °F 75.9 °F 29.98 in SSE 5.0 mph 5.0 mph 82 % 0.00 in
17:14 82.0 °F 75.9 °F 29.98 in Calm   5.0 mph 82 % 0.00 in
17:19 82.0 °F 76.3 °F 29.98 in Calm   5.0 mph 83 % 0.00 in
17:24 82.0 °F 76.3 °F 29.98 in East 1.0 mph 5.0 mph 83 % 0.00 in
17:29 82.0 °F 75.9 °F 29.98 in ENE 2.0 mph 5.0 mph 82 % 0.00 in
17:34 82.0 °F 75.6 °F 29.97 in Calm   6.0 mph 81 % 0.00 in
17:39 82.2 °F 75.7 °F 29.98 in Calm   6.0 mph 81 % 0.00 in
17:44 82.6 °F 75.4 °F 29.97 in SE 2.0 mph 6.0 mph 79 % 0.00 in
17:49 82.8 °F 75.2 °F 29.97 in East 2.0 mph 4.0 mph 78 % 0.00 in
17:54 83.1 °F 75.6 °F 29.97 in East 2.0 mph 4.0 mph 78 % 0.00 in
17:59 83.7 °F 76.1 °F 29.97 in ESE 3.0 mph 4.0 mph 78 % 0.00 in
18:04 83.8 °F 76.3 °F 29.96 in SE 4.0 mph 6.0 mph 78 % 0.00 in
18:09 84.0 °F 76.5 °F 29.96 in SE 4.0 mph 6.0 mph 78 % 0.00 in
18:14 84.0 °F 76.1 °F 29.96 in SE 3.0 mph 6.0 mph 77 % 0.00 in
18:16 83.8 °F 75.4 °F 29.96 in SSE 4.0 mph 6.0 mph 76 % 0.00 in
18:21 83.8 °F 75.4 °F 29.96 in ESE 2.0 mph 6.0 mph 76 % 0.00 in
18:25 83.7 °F 75.7 °F 29.96 in SE 6.0 mph 6.0 mph 77 % 0.00 in
18:30 83.7 °F 75.7 °F 29.96 in ESE 2.0 mph 6.0 mph 77 % 0.00 in
18:35 83.7 °F 75.2 °F 29.96 in ENE 5.0 mph 6.0 mph 76 % 0.00 in
18:40 83.8 °F 73.8 °F 29.96 in ESE 4.0 mph 8.0 mph 72 % 0.00 in
18:45 84.2 °F 73.8 °F 29.96 in SE 5.0 mph 8.0 mph 71 % 0.00 in
18:50 84.4 °F 74.3 °F 29.96 in SSE 5.0 mph 8.0 mph 72 % 0.00 in
18:53 84.4 °F 74.3 °F 29.96 in SSE 2.0 mph 8.0 mph 72 % 0.00 in
18:58 84.4 °F 74.8 °F 29.96 in SSE 4.0 mph 7.0 mph 73 % 0.00 in
19:03 84.4 °F 75.2 °F 29.96 in SSE 4.0 mph 7.0 mph 74 % 0.00 in
19:08 84.4 °F 75.2 °F 29.96 in SE 3.0 mph 8.0 mph 74 % 0.00 in
19:09 84.4 °F 75.2 °F 29.96 in SSE 4.0 mph 8.0 mph 74 % 0.00 in
19:14 84.2 °F 75.4 °F 29.96 in ESE 2.0 mph 8.0 mph 75 % 0.00 in
19:19 84.2 °F 75.4 °F 29.96 in SE 2.0 mph 8.0 mph 75 % 0.00 in
19:24 84.0 °F 75.2 °F 29.96 in SSE 5.0 mph 6.0 mph 75 % 0.00 in
19:29 83.7 °F 75.2 °F 29.96 in SE 4.0 mph 7.0 mph 76 % 0.00 in
19:34 83.5 °F 75.0 °F 29.96 in SE 2.0 mph 7.0 mph 76 % 0.00 in
19:39 83.1 °F 75.2 °F 29.96 in South 3.0 mph 7.0 mph 77 % 0.00 in
19:44 82.9 °F 75.0 °F 29.95 in SE 3.0 mph 8.0 mph 77 % 0.00 in
19:49 82.8 °F 75.2 °F 29.95 in ESE 3.0 mph 8.0 mph 78 % 0.00 in
19:54 82.6 °F 75.0 °F 29.95 in SE 3.0 mph 8.0 mph 78 % 0.00 in
19:59 82.2 °F 75.0 °F 29.95 in ESE 3.0 mph 5.0 mph 79 % 0.00 in
20:04 82.0 °F 74.8 °F 29.95 in ESE 3.0 mph 5.0 mph 79 % 0.00 in
20:09 81.9 °F 74.7 °F 29.96 in SE 3.0 mph 6.0 mph 79 % 0.00 in
20:14 81.9 °F 75.0 °F 29.95 in ESE 1.0 mph 6.0 mph 80 % 0.00 in
20:19 81.7 °F 74.8 °F 29.95 in SSE 2.0 mph 6.0 mph 80 % 0.00 in
20:24 81.5 °F 74.7 °F 29.95 in ENE 1.0 mph 5.0 mph 80 % 0.00 in
20:29 81.3 °F 74.8 °F 29.95 in ESE 2.0 mph 4.0 mph 81 % 0.00 in
20:34 81.1 °F 74.7 °F 29.95 in East 1.0 mph 3.0 mph 81 % 0.00 in
20:39 81.0 °F 74.7 °F 29.95 in SE 1.0 mph 3.0 mph 81 % 0.00 in
20:44 80.8 °F 74.8 °F 29.95 in ESE 1.0 mph 2.0 mph 82 % 0.00 in
20:49 80.6 °F 74.7 °F 29.95 in ESE 1.0 mph 3.0 mph 82 % 0.00 in
20:54 80.4 °F 74.8 °F 29.96 in Calm   3.0 mph 83 % 0.00 in
20:59 80.2 °F 74.7 °F 29.96 in Calm   3.0 mph 83 % 0.00 in
21:04 80.2 °F 74.7 °F 29.96 in SE 2.0 mph 3.0 mph 83 % 0.00 in
21:10 80.2 °F 75.0 °F 29.96 in Calm   3.0 mph 84 % 0.00 in
21:15 80.1 °F 74.8 °F 29.96 in Calm   5.0 mph 84 % 0.00 in
21:20 80.1 °F 74.8 °F 29.96 in East 1.0 mph 5.0 mph 84 % 0.00 in
21:25 80.1 °F 74.8 °F 29.96 in Calm   5.0 mph 84 % 0.00 in
21:30 79.9 °F 74.7 °F 29.96 in East 4.0 mph 4.0 mph 84 % 0.00 in
21:35 79.9 °F 75.0 °F 29.96 in SE 1.0 mph 5.0 mph 85 % 0.00 in
21:40 79.7 °F 74.8 °F 29.96 in Calm   5.0 mph 85 % 0.00 in
21:45 79.7 °F 75.2 °F 29.96 in Calm   3.0 mph 86 % 0.00 in
21:50 79.5 °F 75.0 °F 29.96 in Calm   3.0 mph 86 % 0.00 in
21:55 79.5 °F 75.0 °F 29.96 in ESE 1.0 mph 2.0 mph 86 % 0.00 in
22:00 79.3 °F 75.2 °F 29.96 in Calm   2.0 mph 87 % 0.00 in
22:05 79.3 °F 75.2 °F 29.97 in SE 1.0 mph 2.0 mph 87 % 0.00 in
22:06 79.3 °F 75.2 °F 29.97 in East 1.0 mph 2.0 mph 87 % 0.00 in
22:11 79.2 °F 75.4 °F 29.97 in SSE 1.0 mph 2.0 mph 88 % 0.00 in
22:16 79.2 °F 75.4 °F 29.97 in SE 1.0 mph 3.0 mph 88 % 0.00 in
22:20 79.2 °F 75.4 °F 29.97 in SSE 1.0 mph 3.0 mph 88 % 0.00 in
22:26 79.0 °F 75.2 °F 29.97 in SE 3.0 mph 3.0 mph 88 % 0.00 in
22:31 79.0 °F 75.4 °F 29.97 in Calm   3.0 mph 89 % 0.00 in
22:36 78.8 °F 75.2 °F 29.97 in Calm   3.0 mph 89 % 0.00 in
22:41 78.8 °F 75.2 °F 29.97 in SSE 2.0 mph 3.0 mph 89 % 0.00 in
22:46 78.6 °F 75.0 °F 29.97 in ESE 1.0 mph 3.0 mph 89 % 0.00 in
22:51 78.6 °F 75.4 °F 29.98 in SE 2.0 mph 3.0 mph 90 % 0.00 in
22:56 78.6 °F 75.4 °F 29.98 in SE 1.0 mph 3.0 mph 90 % 0.00 in
23:01 78.6 °F 75.4 °F 29.98 in SE 1.0 mph 3.0 mph 90 % 0.00 in
23:06 78.4 °F 75.2 °F 29.98 in SE 1.0 mph 3.0 mph 90 % 0.00 in
23:11 78.6 °F 75.4 °F 29.98 in Calm   3.0 mph 90 % 0.00 in
23:16 78.4 °F 75.2 °F 29.98 in Calm   3.0 mph 90 % 0.00 in
23:21 78.4 °F 75.2 °F 29.98 in Calm   3.0 mph 90 % 0.00 in
23:26 78.3 °F 75.4 °F 29.98 in Calm   2.0 mph 91 % 0.00 in
23:31 78.3 °F 75.4 °F 29.98 in SE 1.0 mph 2.0 mph 91 % 0.00 in
23:36 78.4 °F 75.6 °F 29.98 in Calm   3.0 mph 91 % 0.00 in
23:41 78.4 °F 75.6 °F 29.98 in ESE 1.0 mph 3.0 mph 91 % 0.00 in
23:46 78.4 °F 75.6 °F 29.98 in Calm   3.0 mph 91 % 0.00 in
23:51 78.4 °F 75.2 °F 29.98 in ESE 1.0 mph 3.0 mph 90 % 0.00 in
23:56 78.4 °F 75.6 °F 29.99 in ESE 1.0 mph 3.0 mph 91 % 0.00 in
Spring, Texas: Villages of Bridgestone
Compliments of Weather Underground - 3 mb

Script developed by  Jim McMurry - jmcmurry@mwt.net Adapted for the template by  Wim van der Kuil - Leuven-Template.eu

You find our weather info also at:

UK Metoffice

WeatherCloud

Weather Underground

Mid-South Weather Network

AWEKAS

Citizen Weather Observer Program (CWOP)

HAMweather, WeatherForYou, PWS Weather

Equipment we use:

Weather-station
Davis Vantage Vue

Weather-program
Meteohub

Weather-server
Debian 7.9 x86 (Guest)

Provider
DreamHost

Davis Vantage Vue

Meteohub

Debian 7.9 x86 (Guest)

DreamHost